Time;durP1;ratioP1;P1;durP2;ratioP2;P2;SDS_P1;SDS_P2;PMS_P1;PMS_P2;Temp;Humidity;BMP_temperature;BMP_pressure;BME280_temperature;BME280_humidity;BME280_pressure;Samples;Min_cycle;Max_cycle;Signal;HPM_P1;HPM_P2
2022/02/11 00:01:15;;;;;;;12.60;3.63;;;3.40;99.90;;;;;;4917992;29;20028;-93
2022/02/11 00:08:48;;;;;;;15.48;3.63;;;3.60;99.90;;;;;;4938141;29;20035;-90
2022/02/11 00:11:20;;;;;;;12.75;4.40;;;3.60;99.90;;;;;;4925342;29;20028;-89
2022/02/11 00:13:46;;;;;;;16.17;5.22;;;3.60;99.90;;;;;;4939808;29;20027;-88
2022/02/11 00:16:13;;;;;;;20.70;5.45;;;3.70;99.90;;;;;;4937626;29;20054;-89
2022/02/11 00:18:39;;;;;;;16.77;4.40;;;3.70;99.90;;;;;;4921327;29;20510;-87
2022/02/11 00:21:04;;;;;;;16.33;5.40;;;3.70;99.90;;;;;;4921813;29;20079;-90
2022/02/11 00:23:32;;;;;;;14.45;5.00;;;3.80;99.90;;;;;;4924328;29;20149;-90
2022/02/11 00:26:00;;;;;;;13.98;4.43;;;3.80;99.90;;;;;;4919669;29;20032;-89
2022/02/11 00:33:43;;;;;;;13.40;4.25;;;3.90;99.90;;;;;;4923838;29;20040;-91
2022/02/11 00:36:11;;;;;;;15.80;4.60;;;3.90;99.90;;;;;;4939734;29;20031;-91
2022/02/11 01:03:04;;;;;;;11.23;3.47;;;3.90;99.90;;;;;;4941675;29;20094;-89
2022/02/11 01:05:29;;;;;;;13.55;4.15;;;3.80;99.90;;;;;;4925855;29;20067;-91
2022/02/11 01:07:55;;;;;;;12.10;3.72;;;3.80;99.90;;;;;;4922344;29;20023;-91
2022/02/11 01:10:22;;;;;;;13.57;3.35;;;3.70;99.90;;;;;;4940005;29;20098;-92
2022/02/11 01:12:48;;;;;;;14.88;3.13;;;3.70;99.90;;;;;;4925381;29;20027;-92
2022/02/11 01:15:14;;;;;;;11.70;3.20;;;3.70;99.90;;;;;;4942606;29;20074;-90
2022/02/11 01:17:49;;;;;;;15.43;3.00;;;3.70;99.90;;;;;;4903883;29;20055;-91
2022/02/11 01:20:27;;;;;;;13.43;3.17;;;3.60;99.90;;;;;;4940711;29;20024;-91
2022/02/11 01:31:10;;;;;;;12.43;3.17;;;3.60;99.90;;;;;;4940095;29;20122;-91
2022/02/11 01:36:37;;;;;;;14.00;3.10;;;3.60;99.90;;;;;;4939787;29;20035;-91
2022/02/11 01:49:23;;;;;;;16.17;3.55;;;3.80;99.90;;;;;;4937952;29;20031;-90
2022/02/11 01:51:59;;;;;;;12.02;2.83;;;3.90;99.90;;;;;;4942064;29;20047;-88
2022/02/11 02:59:02;;;;;;;14.00;2.72;;;4.40;99.90;;;;;;4942934;29;20102;-89
2022/02/11 03:01:45;;;;;;;11.95;3.22;;;4.40;99.90;;;;;;4925764;29;20373;-90
2022/02/11 03:31:33;;;;;;;15.32;2.90;;;4.50;99.90;;;;;;4938376;29;20028;-89
2022/02/11 03:34:40;;;;;;;20.77;3.30;;;4.80;99.90;;;;;;4942513;29;20054;-88
2022/02/11 04:56:05;;;;;;;13.27;2.33;;;4.90;99.90;;;;;;4948613;29;20083;-89
2022/02/11 05:01:17;;;;;;;16.80;2.75;;;4.80;99.90;;;;;;4939235;29;20506;-90
2022/02/11 05:03:43;;;;;;;14.30;2.55;;;4.80;99.90;;;;;;4958624;29;20035;-91
2022/02/11 05:06:09;;;;;;;13.43;2.83;;;4.80;99.90;;;;;;4905466;29;20454;-89
2022/02/11 05:08:36;;;;;;;18.20;4.63;;;4.70;99.90;;;;;;4952343;29;20030;-90
2022/02/11 05:11:09;;;;;;;16.80;3.03;;;4.80;99.90;;;;;;4954411;29;20543;-90
2022/02/11 05:13:36;;;;;;;18.10;3.00;;;4.80;99.90;;;;;;4917744;29;20036;-91
2022/02/11 05:16:02;;;;;;;16.13;2.70;;;4.70;99.90;;;;;;4941691;29;20032;-92
2022/02/11 05:18:28;;;;;;;15.90;3.03;;;4.70;99.90;;;;;;4921114;29;20044;-90
2022/02/11 05:20:53;;;;;;;16.23;3.10;;;4.70;99.90;;;;;;4939837;29;20027;-91
2022/02/11 05:23:19;;;;;;;10.77;2.45;;;4.70;99.90;;;;;;4944092;29;20047;-90
2022/02/11 05:25:45;;;;;;;21.05;3.25;;;4.60;99.90;;;;;;4978290;28;20128;-92
2022/02/11 05:28:12;;;;;;;17.55;2.92;;;4.60;99.90;;;;;;4963681;29;20048;-91
2022/02/11 05:30:39;;;;;;;15.82;3.42;;;4.50;99.90;;;;;;4956862;29;20032;-91
2022/02/11 05:33:06;;;;;;;15.23;2.88;;;4.50;99.90;;;;;;4977917;28;20038;-91
2022/02/11 05:35:33;;;;;;;17.90;3.30;;;4.50;99.90;;;;;;4976453;28;20123;-90
2022/02/11 05:37:59;;;;;;;20.85;3.08;;;4.60;99.90;;;;;;4961119;29;20043;-91
2022/02/11 05:40:24;;;;;;;16.10;2.65;;;4.50;99.90;;;;;;4962537;29;20506;-91
2022/02/11 05:42:50;;;;;;;13.10;2.35;;;4.60;99.90;;;;;;4941204;29;20091;-91
2022/02/11 05:45:17;;;;;;;14.07;2.30;;;4.50;99.90;;;;;;4947702;28;20027;-90
2022/02/11 05:47:43;;;;;;;15.43;2.10;;;4.50;99.90;;;;;;4975440;28;20039;-91
2022/02/11 05:50:09;;;;;;;11.43;2.47;;;4.50;99.90;;;;;;4977264;28;20087;-91
2022/02/11 05:52:36;;;;;;;16.10;2.83;;;4.50;99.90;;;;;;4978292;28;20034;-92
2022/02/11 05:55:02;;;;;;;16.15;2.80;;;4.50;99.90;;;;;;4967011;28;20042;-89
2022/02/11 05:57:28;;;;;;;22.27;3.20;;;4.50;99.90;;;;;;4963174;28;20038;-90
2022/02/11 05:59:59;;;;;;;13.98;2.92;;;4.60;99.90;;;;;;4958941;28;20035;-91
2022/02/11 06:02:25;;;;;;;16.60;2.47;;;4.60;99.90;;;;;;4963779;28;20024;-91
2022/02/11 06:04:50;;;;;;;16.88;2.55;;;4.60;99.90;;;;;;4962044;28;20035;-91
2022/02/11 06:07:16;;;;;;;16.08;2.83;;;4.60;99.90;;;;;;4945422;29;20032;-90
2022/02/11 06:09:42;;;;;;;14.95;2.63;;;4.60;99.90;;;;;;4958436;29;20028;-92
2022/02/11 06:12:08;;;;;;;15.15;2.75;;;4.50;99.90;;;;;;4962948;29;20123;-94
2022/02/11 06:14:36;;;;;;;14.02;2.72;;;4.60;99.90;;;;;;4963208;28;20103;-92
2022/02/11 06:17:02;;;;;;;14.73;3.10;;;4.60;99.90;;;;;;4945653;29;20063;-92
2022/02/11 06:19:28;;;;;;;12.70;2.30;;;4.50;99.90;;;;;;4962770;28;20055;-92
2022/02/11 06:21:53;;;;;;;18.25;3.42;;;4.50;99.90;;;;;;4956239;29;20037;-89
2022/02/11 06:24:19;;;;;;;15.40;3.00;;;4.50;99.90;;;;;;4933401;29;20052;-91
2022/02/11 06:26:45;;;;;;;22.48;3.50;;;4.50;99.90;;;;;;4944079;29;20020;-91
2022/02/11 06:29:11;;;;;;;16.05;2.88;;;4.50;99.90;;;;;;4944163;29;20039;-91
2022/02/11 06:31:37;;;;;;;18.92;3.00;;;4.50;99.90;;;;;;4926234;29;20028;-91
2022/02/11 06:34:02;;;;;;;22.55;3.25;;;4.50;99.90;;;;;;4944179;29;20052;-91
2022/02/11 06:36:28;;;;;;;17.65;3.03;;;4.50;99.90;;;;;;4912968;29;20051;-90
2022/02/11 06:38:54;;;;;;;11.82;2.67;;;4.50;99.90;;;;;;4929378;29;20070;-91
2022/02/11 06:41:19;;;;;;;14.88;2.95;;;4.50;99.90;;;;;;4942414;29;20032;-91
2022/02/11 06:43:45;;;;;;;17.33;3.22;;;4.50;99.90;;;;;;4939783;29;20032;-92
2022/02/11 06:46:11;;;;;;;16.30;3.03;;;4.50;99.90;;;;;;4943544;29;20028;-93
2022/02/11 06:48:37;;;;;;;20.08;3.35;;;4.50;99.90;;;;;;4914352;29;20055;-91
2022/02/11 06:51:02;;;;;;;19.17;3.08;;;4.40;99.90;;;;;;4913651;29;20026;-91
2022/02/11 06:53:28;;;;;;;19.35;2.92;;;4.40;99.90;;;;;;4948271;29;20032;-89
2022/02/11 06:55:54;;;;;;;17.65;3.08;;;4.40;99.90;;;;;;4911829;29;20043;-91
2022/02/11 06:58:22;;;;;;;16.80;2.95;;;4.40;99.90;;;;;;4912533;29;20055;-91
2022/02/11 07:00:50;;;;;;;20.42;3.13;;;4.40;99.90;;;;;;4950095;29;20042;-91
2022/02/11 07:03:17;;;;;;;18.95;2.40;;;4.40;99.90;;;;;;4959499;28;20039;-93
2022/02/11 07:05:43;;;;;;;16.70;2.90;;;4.40;99.90;;;;;;4928980;29;20030;-92
2022/02/11 07:08:09;;;;;;;16.27;3.10;;;4.40;99.90;;;;;;4927083;29;20030;-91
2022/02/11 07:10:35;;;;;;;12.35;3.10;;;4.40;99.90;;;;;;4947198;29;20030;-91
2022/02/11 07:13:01;;;;;;;15.90;2.95;;;4.40;99.90;;;;;;4954874;29;20031;-92
2022/02/11 07:15:29;;;;;;;14.38;2.85;;;4.40;99.90;;;;;;4942025;29;20182;-92
2022/02/11 07:17:55;;;;;;;15.13;2.97;;;4.40;99.90;;;;;;4936396;29;20051;-88
2022/02/11 07:20:21;;;;;;;16.25;2.95;;;4.40;99.90;;;;;;4938460;29;20035;-90
2022/02/11 07:22:47;;;;;;;15.02;3.25;;;4.40;99.90;;;;;;4925240;29;20080;-91
2022/02/11 07:25:14;;;;;;;18.58;3.42;;;4.40;99.90;;;;;;4940004;29;20035;-90
2022/02/11 07:27:40;;;;;;;21.45;3.35;;;4.40;99.90;;;;;;4935475;29;20040;-90
2022/02/11 07:30:07;;;;;;;22.77;3.75;;;4.40;99.90;;;;;;4953469;29;20031;-90
2022/02/11 07:32:33;;;;;;;17.45;3.03;;;4.50;99.90;;;;;;4933541;29;20032;-89
2022/02/11 07:35:03;;;;;;;15.02;2.47;;;4.50;99.90;;;;;;4935059;29;20087;-89
2022/02/11 07:37:30;;;;;;;20.35;3.50;;;4.50;99.90;;;;;;4919335;29;20042;-91
2022/02/11 07:39:58;;;;;;;18.00;4.13;;;4.50;99.90;;;;;;4938540;29;20049;-92
2022/02/11 07:42:25;;;;;;;21.90;3.30;;;4.50;99.90;;;;;;4918885;29;20020;-87
2022/02/11 07:44:54;;;;;;;12.38;3.15;;;4.60;99.90;;;;;;4937392;29;20035;-90
2022/02/11 07:47:21;;;;;;;25.40;4.45;;;4.60;99.90;;;;;;4918714;29;20042;-93
2022/02/11 07:49:47;;;;;;;14.38;3.47;;;4.60;99.90;;;;;;4907540;29;20032;-90
2022/02/11 07:52:13;;;;;;;16.42;3.50;;;4.50;99.90;;;;;;4920754;29;20016;-91
2022/02/11 07:54:38;;;;;;;17.92;3.88;;;4.40;99.90;;;;;;4944091;29;20056;-89
2022/02/11 07:57:04;;;;;;;21.02;3.35;;;4.40;99.90;;;;;;4920745;29;20070;-84
2022/02/11 07:59:30;;;;;;;21.55;3.90;;;4.40;99.90;;;;;;4921205;29;20078;-87
2022/02/11 08:01:56;;;;;;;16.48;3.42;;;4.40;99.90;;;;;;4917084;29;20167;-90
2022/02/11 08:04:22;;;;;;;20.83;4.10;;;4.50;99.90;;;;;;4921644;29;20036;-90
2022/02/11 08:06:48;;;;;;;23.33;3.33;;;4.50;99.90;;;;;;4930850;29;20040;-88
2022/02/11 08:09:14;;;;;;;17.33;2.90;;;4.50;99.90;;;;;;4948829;28;20030;-88
2022/02/11 08:11:44;;;;;;;19.85;3.17;;;4.50;99.90;;;;;;4936935;29;20043;-87
2022/02/11 08:14:10;;;;;;;19.80;3.70;;;4.50;99.90;;;;;;4903011;29;20070;-86
2022/02/11 08:16:36;;;;;;;19.13;3.40;;;4.50;99.90;;;;;;4938571;29;20035;-87
2022/02/11 08:19:02;;;;;;;19.10;3.67;;;4.50;99.90;;;;;;4922079;29;20071;-88
2022/02/11 08:21:28;;;;;;;15.13;3.15;;;4.50;99.90;;;;;;4938882;29;20491;-86
2022/02/11 08:23:54;;;;;;;15.65;3.83;;;4.60;99.90;;;;;;4922806;29;20062;-87
2022/02/11 08:26:19;;;;;;;19.60;2.85;;;4.60;99.90;;;;;;4935866;29;20032;-87
2022/02/11 08:28:48;;;;;;;12.45;2.42;;;4.60;99.90;;;;;;4952255;29;20027;-87
2022/02/11 08:31:14;;;;;;;18.30;3.72;;;4.70;99.90;;;;;;4949533;29;20023;-88
2022/02/11 08:33:40;;;;;;;21.17;3.78;;;4.70;99.90;;;;;;4920354;29;20046;-88
2022/02/11 08:36:09;;;;;;;19.00;3.92;;;4.70;99.90;;;;;;4935353;29;20206;-79
2022/02/11 08:38:34;;;;;;;21.27;3.72;;;4.80;99.90;;;;;;4924114;29;20063;-78
2022/02/11 08:41:00;;;;;;;20.52;3.45;;;4.80;99.90;;;;;;4952910;29;20028;-81
2022/02/11 08:43:29;;;;;;;18.92;3.80;;;4.70;99.90;;;;;;4922253;29;20032;-84
2022/02/11 08:45:55;;;;;;;26.30;3.53;;;4.70;99.90;;;;;;4936347;29;20043;-80
2022/02/11 08:48:21;;;;;;;19.05;4.22;;;4.60;99.90;;;;;;4934087;29;20031;-80
2022/02/11 08:50:46;;;;;;;21.90;5.05;;;4.60;99.90;;;;;;4938441;29;20047;-80
2022/02/11 08:53:12;;;;;;;19.67;4.25;;;4.50;99.90;;;;;;4934159;29;20034;-80
2022/02/11 08:55:38;;;;;;;21.33;4.68;;;4.60;99.90;;;;;;4921782;29;20449;-80
2022/02/11 08:58:07;;;;;;;24.50;4.35;;;4.60;99.90;;;;;;4922283;29;20424;-82
2022/02/11 09:00:33;;;;;;;21.48;4.10;;;4.70;99.90;;;;;;4938377;29;20038;-82
2022/02/11 09:03:00;;;;;;;17.27;3.53;;;4.70;99.90;;;;;;4941089;29;20032;-82
2022/02/11 09:05:27;;;;;;;21.60;4.18;;;4.70;99.90;;;;;;4938457;29;20023;-79
2022/02/11 09:07:53;;;;;;;26.27;3.65;;;4.80;99.90;;;;;;4941806;29;20028;-79
2022/02/11 09:10:19;;;;;;;18.95;3.47;;;5.00;99.90;;;;;;4935428;29;20357;-79
2022/02/11 09:12:45;;;;;;;19.48;4.18;;;5.20;99.90;;;;;;4928291;29;20475;-79
2022/02/11 09:15:11;;;;;;;26.20;3.65;;;5.30;99.90;;;;;;4921590;29;20062;-79
2022/02/11 09:17:37;;;;;;;17.40;3.42;;;5.40;99.90;;;;;;4925480;29;20548;-80
2022/02/11 09:20:03;;;;;;;22.85;3.90;;;5.60;99.90;;;;;;4921955;29;20043;-80
2022/02/11 09:22:30;;;;;;;21.40;4.20;;;5.60;99.90;;;;;;4921275;28;20489;-81
2022/02/11 09:24:56;;;;;;;21.95;3.65;;;5.70;99.90;;;;;;4963867;28;20027;-78
2022/02/11 09:27:22;;;;;;;17.88;3.40;;;5.70;99.90;;;;;;4946771;28;20051;-79
2022/02/11 09:29:49;;;;;;;22.15;3.50;;;5.80;99.90;;;;;;4978039;28;20041;-78
2022/02/11 09:32:15;;;;;;;21.88;3.97;;;5.70;99.90;;;;;;4976622;28;20077;-79
2022/02/11 09:34:41;;;;;;;21.98;3.72;;;5.70;99.90;;;;;;4964239;28;20055;-79
2022/02/11 09:37:07;;;;;;;18.58;3.72;;;5.50;99.90;;;;;;4957473;28;20038;-79
2022/02/11 09:39:32;;;;;;;20.83;4.05;;;5.50;99.90;;;;;;4947522;28;20193;-79
2022/02/11 09:41:59;;;;;;;20.67;3.75;;;5.50;99.90;;;;;;4949255;28;20030;-79
2022/02/11 09:44:27;;;;;;;22.05;4.30;;;5.60;99.90;;;;;;4978791;28;20502;-79
2022/02/11 09:46:55;;;;;;;15.07;3.25;;;5.70;99.90;;;;;;4973230;28;20047;-80
2022/02/11 09:49:21;;;;;;;21.02;4.22;;;5.90;99.90;;;;;;4962381;28;20235;-79
2022/02/11 09:51:50;;;;;;;22.88;3.97;;;6.10;99.90;;;;;;4961448;28;20051;-79
2022/02/11 09:54:21;;;;;;;26.02;4.75;;;6.40;99.90;;;;;;4945937;28;20027;-79
2022/02/11 09:56:50;;;;;;;22.77;3.97;;;6.60;99.90;;;;;;4957243;28;20034;-81
2022/02/11 09:59:16;;;;;;;20.52;4.15;;;6.60;99.90;;;;;;4982340;28;20329;-81
2022/02/11 10:01:43;;;;;;;16.48;4.07;;;6.70;99.90;;;;;;4960079;28;20122;-79
2022/02/11 10:04:12;;;;;;;18.08;3.72;;;6.70;99.90;;;;;;4961563;28;20110;-79
2022/02/11 10:06:38;;;;;;;19.13;4.03;;;6.80;99.90;;;;;;4970456;28;20030;-79
2022/02/11 10:09:05;;;;;;;17.70;3.72;;;6.60;99.90;;;;;;4943246;28;20098;-78
2022/02/11 10:11:30;;;;;;;20.25;3.67;;;6.70;99.90;;;;;;4976911;28;20733;-79
2022/02/11 10:14:15;;;;;;;17.83;3.58;;;6.70;99.90;;;;;;4944914;28;20026;-79
2022/02/11 10:17:02;;;;;;;15.27;3.60;;;6.90;99.90;;;;;;4969770;28;20039;-78
2022/02/11 10:19:38;;;;;;;16.88;3.78;;;7.10;99.90;;;;;;4968084;28;20118;-79
2022/02/11 10:22:18;;;;;;;18.67;3.50;;;6.90;99.90;;;;;;4979082;28;20034;-79
2022/02/11 10:24:45;;;;;;;19.63;2.92;;;6.60;99.90;;;;;;4982880;28;20058;-79
2022/02/11 10:27:20;;;;;;;17.95;3.22;;;6.50;99.90;;;;;;4965694;28;20023;-78
2022/02/11 10:29:48;;;;;;;19.20;3.58;;;6.40;99.90;;;;;;4966966;28;20467;-78
2022/02/11 10:32:14;;;;;;;15.82;3.30;;;6.40;99.90;;;;;;4983100;28;20416;-78
2022/02/11 10:34:39;;;;;;;16.00;3.42;;;6.50;99.90;;;;;;4982097;28;20540;-81
2022/02/11 10:37:10;;;;;;;15.30;3.28;;;6.50;99.90;;;;;;4950597;28;20037;-76
2022/02/11 10:39:37;;;;;;;16.60;3.25;;;6.60;99.90;;;;;;4977131;28;20031;-77
2022/02/11 10:42:10;;;;;;;16.13;3.10;;;6.70;99.90;;;;;;4975019;28;20038;-77
2022/02/11 10:44:39;;;;;;;18.27;2.63;;;6.90;99.90;;;;;;4981302;28;20618;-77
2022/02/11 10:47:11;;;;;;;19.30;3.20;;;7.00;99.90;;;;;;4980231;28;20022;-77
2022/02/11 10:49:46;;;;;;;14.15;2.40;;;7.10;99.90;;;;;;4964688;28;20028;-77
2022/02/11 10:52:23;;;;;;;16.95;3.42;;;7.20;99.90;;;;;;4980029;28;20027;-77
2022/02/11 10:54:51;;;;;;;17.55;3.22;;;7.40;99.90;;;;;;4975573;28;20409;-76
2022/02/11 10:57:20;;;;;;;22.17;2.78;;;7.50;99.90;;;;;;4958453;28;20028;-78
2022/02/11 10:59:48;;;;;;;14.57;3.33;;;7.40;99.90;;;;;;4957570;28;20056;-77
2022/02/11 11:02:20;;;;;;;15.30;2.65;;;7.30;99.90;;;;;;4957892;28;20094;-76
2022/02/11 11:04:47;;;;;;;17.20;2.90;;;7.30;99.90;;;;;;4969771;28;20049;-76
2022/02/11 11:07:18;;;;;;;17.35;3.28;;;7.40;99.90;;;;;;4970887;28;20119;-76
2022/02/11 11:09:45;;;;;;;17.05;2.80;;;7.40;99.90;;;;;;4973609;28;20031;-77
2022/02/11 11:12:15;;;;;;;17.15;3.53;;;7.30;99.90;;;;;;4975341;28;20106;-77
2022/02/11 11:14:46;;;;;;;14.82;3.25;;;7.40;99.90;;;;;;4956677;28;20062;-77
2022/02/11 11:17:14;;;;;;;13.30;2.45;;;7.60;99.90;;;;;;4943055;28;20035;-77
2022/02/11 11:19:40;;;;;;;15.50;2.97;;;7.70;99.90;;;;;;4973970;28;20111;-77
2022/02/11 11:22:11;;;;;;;16.92;2.65;;;7.80;99.90;;;;;;4975645;28;20031;-77
2022/02/11 11:24:47;;;;;;;13.48;2.67;;;7.80;99.90;;;;;;4967697;28;20153;-77
2022/02/11 11:27:13;;;;;;;17.58;2.75;;;8.30;99.90;;;;;;4960075;28;20512;-77
2022/02/11 11:29:39;;;;;;;16.00;2.92;;;8.50;99.90;;;;;;4959371;28;20031;-77
2022/02/11 11:32:05;;;;;;;14.18;3.28;;;8.80;99.90;;;;;;4958334;28;20484;-77
2022/02/11 11:34:34;;;;;;;13.30;2.85;;;8.90;99.90;;;;;;4961842;28;20067;-77
2022/02/11 11:37:11;;;;;;;15.48;3.25;;;8.40;99.90;;;;;;4974758;28;20027;-77
2022/02/11 11:39:40;;;;;;;10.38;2.38;;;8.20;99.90;;;;;;4973203;28;20759;-78
2022/02/11 11:42:15;;;;;;;12.60;2.70;;;8.40;99.90;;;;;;4964248;28;20023;-78
2022/02/11 11:44:48;;;;;;;16.15;3.28;;;8.20;99.90;;;;;;4973389;28;20038;-78
2022/02/11 11:47:37;;;;;;;16.52;2.47;;;7.90;99.90;;;;;;4974492;28;20028;-79
2022/02/11 11:50:06;;;;;;;12.13;2.60;;;7.80;99.90;;;;;;4958825;28;20380;-77
2022/02/11 11:52:47;;;;;;;12.60;3.08;;;7.60;99.90;;;;;;4958171;28;20125;-77
2022/02/11 11:55:20;;;;;;;14.30;2.73;;;7.60;99.90;;;;;;4975282;28;20053;-78
2022/02/11 11:57:46;;;;;;;16.98;2.80;;;7.50;99.90;;;;;;4977223;28;20035;-78
2022/02/11 12:00:12;;;;;;;17.75;2.90;;;7.60;99.90;;;;;;4959980;28;20027;-77
2022/02/11 12:02:38;;;;;;;17.23;3.13;;;7.60;99.90;;;;;;4955967;28;20055;-77
2022/02/11 12:05:05;;;;;;;12.40;2.33;;;7.70;99.90;;;;;;4969695;28;20090;-77
2022/02/11 12:07:34;;;;;;;17.27;3.20;;;7.60;99.90;;;;;;4972499;28;20078;-77
2022/02/11 12:10:03;;;;;;;12.85;2.72;;;7.40;99.90;;;;;;4955716;28;20034;-77
2022/02/11 12:12:30;;;;;;;14.30;2.65;;;7.30;99.90;;;;;;4957374;28;20038;-77
2022/02/11 12:14:58;;;;;;;17.95;2.95;;;7.00;99.90;;;;;;4970154;28;20023;-77
2022/02/11 12:17:25;;;;;;;17.40;2.88;;;7.00;99.90;;;;;;4941847;28;20039;-77
2022/02/11 12:19:52;;;;;;;14.38;2.40;;;6.90;99.90;;;;;;4970443;28;20466;-77
2022/02/11 12:22:21;;;;;;;11.40;2.45;;;6.90;99.90;;;;;;4975575;28;20030;-77
2022/02/11 12:27:35;;;;;;;11.57;2.40;;;6.80;99.90;;;;;;4961932;28;20050;-77
2022/02/11 12:30:07;;;;;;;17.45;2.33;;;6.90;99.90;;;;;;4959111;28;20132;-77
2022/02/11 12:32:43;;;;;;;13.98;2.40;;;6.80;99.90;;;;;;4970165;28;20051;-77
2022/02/11 12:35:11;;;;;;;11.57;2.05;;;6.70;99.90;;;;;;4970424;28;20053;-77
2022/02/11 12:37:39;;;;;;;13.73;2.60;;;6.60;99.90;;;;;;4970713;28;20023;-77
2022/02/11 12:40:08;;;;;;;12.63;1.83;;;6.60;99.90;;;;;;4959149;28;20034;-77
2022/02/11 12:42:37;;;;;;;14.32;2.45;;;6.60;99.90;;;;;;4957722;28;20034;-77
2022/02/11 12:45:05;;;;;;;13.18;2.85;;;6.60;99.90;;;;;;4974989;28;20038;-77
2022/02/11 12:47:35;;;;;;;9.32;2.05;;;6.50;99.90;;;;;;4957936;28;20026;-77
2022/02/11 12:50:01;;;;;;;10.52;1.90;;;6.60;99.90;;;;;;4973325;28;20041;-76
2022/02/11 12:52:30;;;;;;;12.63;2.47;;;6.60;99.90;;;;;;4969536;28;20020;-76
2022/02/11 12:55:19;;;;;;;12.95;2.05;;;6.60;99.90;;;;;;4973095;28;20462;-76
2022/02/11 12:57:52;;;;;;;10.88;2.25;;;6.60;99.90;;;;;;4960913;28;20050;-76
2022/02/11 13:00:22;;;;;;;13.73;2.10;;;6.70;99.90;;;;;;4973734;28;20058;-77
2022/02/11 13:02:50;;;;;;;10.30;2.08;;;6.70;99.90;;;;;;4974040;28;20494;-77
2022/02/11 13:05:17;;;;;;;14.32;1.92;;;6.90;99.90;;;;;;4967767;28;20031;-77
2022/02/11 13:07:51;;;;;;;11.93;2.40;;;7.00;99.90;;;;;;4974744;28;20026;-77
2022/02/11 13:10:20;;;;;;;13.82;2.17;;;7.10;99.90;;;;;;4957954;28;20026;-77
2022/02/11 13:12:47;;;;;;;10.57;2.33;;;7.20;99.90;;;;;;4971193;28;20046;-77
2022/02/11 13:15:15;;;;;;;11.50;2.13;;;7.50;99.90;;;;;;4971413;28;20027;-77
2022/02/11 13:17:43;;;;;;;12.38;1.83;;;7.90;99.90;;;;;;4973196;28;20031;-77
2022/02/11 13:20:14;;;;;;;10.35;2.08;;;8.00;99.90;;;;;;4975918;28;20046;-77
2022/02/11 13:22:41;;;;;;;9.80;1.77;;;8.20;98.40;;;;;;4975495;28;20090;-76
2022/02/11 13:25:08;;;;;;;12.40;2.05;;;7.70;99.10;;;;;;4956031;28;20041;-77
2022/02/11 13:27:42;;;;;;;9.18;1.80;;;7.40;98.20;;;;;;4962048;28;20027;-78
2022/02/11 13:30:10;;;;;;;10.68;1.60;;;7.90;97.20;;;;;;4956133;28;20233;-78
2022/02/11 13:32:36;;;;;;;10.85;2.13;;;8.90;95.80;;;;;;4959909;28;20078;-79
2022/02/11 13:35:07;;;;;;;10.55;1.92;;;8.80;85.50;;;;;;4953940;28;20452;-79
2022/02/11 13:37:45;;;;;;;8.68;1.88;;;8.80;96.70;;;;;;4969908;28;20141;-79
2022/02/11 13:40:21;;;;;;;9.70;1.60;;;8.40;95.60;;;;;;4971618;28;20054;-78
2022/02/11 13:42:58;;;;;;;12.68;2.10;;;8.10;95.10;;;;;;4955546;28;20512;-78
2022/02/11 13:45:25;;;;;;;11.13;1.70;;;7.60;93.40;;;;;;4960319;28;20031;-79
2022/02/11 13:48:06;;;;;;;9.38;1.98;;;7.40;99.90;;;;;;4977565;28;20097;-78
2022/02/11 13:50:51;;;;;;;9.60;1.87;;;7.20;99.90;;;;;;4975960;28;20366;-79
2022/02/11 13:53:37;;;;;;;12.15;1.90;;;7.00;99.90;;;;;;4964157;28;20066;-79
2022/02/11 13:56:06;;;;;;;10.60;1.77;;;6.80;99.90;;;;;;4975729;28;20050;-79
2022/02/11 13:58:33;;;;;;;9.82;2.13;;;6.70;99.90;;;;;;4978119;28;20115;-78
2022/02/11 14:01:01;;;;;;;14.77;2.00;;;6.60;99.90;;;;;;4961165;28;20031;-78
2022/02/11 14:03:29;;;;;;;13.30;1.90;;;6.70;99.90;;;;;;4947043;28;20033;-78
2022/02/11 14:05:56;;;;;;;10.48;1.70;;;6.60;99.90;;;;;;4963900;28;20121;-79
2022/02/11 14:08:25;;;;;;;9.10;2.05;;;6.80;99.90;;;;;;4983134;28;20042;-79
2022/02/11 14:11:19;;;;;;;11.88;2.65;;;6.70;99.90;;;;;;4960160;28;20072;-79
2022/02/11 14:13:46;;;;;;;13.50;1.75;;;7.20;99.90;;;;;;4970038;28;20039;-79
2022/02/11 14:16:15;;;;;;;10.15;2.17;;;8.20;99.90;;;;;;4978793;28;20018;-77
2022/02/11 14:18:42;;;;;;;10.25;1.90;;;8.10;99.90;;;;;;4979913;28;20045;-77
2022/02/11 14:21:17;;;;;;;13.80;2.08;;;8.10;99.90;;;;;;4963579;28;20108;-77
2022/02/11 14:23:43;;;;;;;10.75;1.90;;;9.10;99.90;;;;;;4978471;28;20065;-77
2022/02/11 14:26:08;;;;;;;12.52;2.33;;;8.50;98.50;;;;;;4965448;28;20467;-78
2022/02/11 14:28:35;;;;;;;10.55;2.42;;;7.90;98.10;;;;;;4983683;28;20033;-77
2022/02/11 14:31:07;;;;;;;9.95;2.20;;;7.70;99.90;;;;;;4982625;28;20034;-78
2022/02/11 14:33:32;;;;;;;16.13;2.33;;;7.40;99.90;;;;;;4982985;28;20332;-77
2022/02/11 14:35:58;;;;;;;14.13;2.45;;;7.00;99.90;;;;;;4964901;28;20054;-77
2022/02/11 14:38:24;;;;;;;11.95;2.63;;;7.40;99.90;;;;;;4966806;28;20043;-78
2022/02/11 14:43:53;;;;;;;10.73;2.20;;;8.00;99.90;;;;;;4939564;29;20512;-77
2022/02/11 14:46:21;;;;;;;15.75;2.30;;;7.90;99.90;;;;;;4917856;29;20051;-77
2022/02/11 14:48:47;;;;;;;15.32;2.40;;;7.60;99.90;;;;;;4920109;29;20043;-78
2022/02/11 14:51:12;;;;;;;12.88;3.33;;;7.50;99.90;;;;;;4951315;28;20038;-77
2022/02/11 14:53:38;;;;;;;12.63;1.90;;;7.30;99.90;;;;;;4965693;28;20029;-77
2022/02/11 14:56:07;;;;;;;11.68;2.03;;;7.10;99.90;;;;;;4982358;28;20029;-77
2022/02/11 14:58:33;;;;;;;15.27;2.30;;;7.00;99.90;;;;;;4966299;28;20043;-77
2022/02/11 15:00:59;;;;;;;12.88;2.05;;;6.90;99.90;;;;;;4965314;28;20034;-77
2022/02/11 15:03:26;;;;;;;13.25;2.03;;;6.80;99.90;;;;;;4950027;28;20039;-78
2022/02/11 15:05:51;;;;;;;13.32;1.85;;;6.70;99.90;;;;;;4929510;29;20559;-78
2022/02/11 15:08:17;;;;;;;12.68;2.30;;;6.60;99.90;;;;;;4935171;28;20034;-77
2022/02/11 15:10:43;;;;;;;10.60;1.90;;;6.50;99.90;;;;;;4962035;28;20027;-79
2022/02/11 15:13:09;;;;;;;14.65;2.15;;;6.60;99.90;;;;;;4976376;28;20038;-80
2022/02/11 15:15:36;;;;;;;9.98;2.33;;;6.60;99.90;;;;;;4980397;28;20034;-77
2022/02/11 15:18:02;;;;;;;10.85;2.00;;;6.60;99.90;;;;;;4975316;28;20033;-77
2022/02/11 15:20:28;;;;;;;16.15;2.13;;;6.50;99.90;;;;;;4975615;28;20050;-77
2022/02/11 15:22:54;;;;;;;18.55;2.25;;;6.30;99.90;;;;;;4944816;28;20035;-77
2022/02/11 15:25:20;;;;;;;17.17;6.38;;;6.30;99.90;;;;;;4976072;28;20152;-77
2022/02/11 15:27:45;;;;;;;15.18;3.22;;;6.30;99.90;;;;;;4958970;28;20034;-76
2022/02/11 15:30:14;;;;;;;10.13;1.73;;;6.60;99.90;;;;;;4944625;28;20032;-77
2022/02/11 15:32:40;;;;;;;14.93;2.42;;;7.20;99.90;;;;;;4963587;28;20035;-77
2022/02/11 15:35:06;;;;;;;11.75;2.42;;;7.90;99.90;;;;;;4971851;28;20024;-77
2022/02/11 15:37:31;;;;;;;10.35;2.22;;;8.40;99.90;;;;;;4947530;28;20117;-76
2022/02/11 15:39:57;;;;;;;11.80;2.30;;;8.50;99.90;;;;;;4961079;28;20046;-77
2022/02/11 15:42:23;;;;;;;14.15;1.90;;;8.00;99.90;;;;;;4960670;28;20098;-77
2022/02/11 15:44:49;;;;;;;10.85;1.90;;;7.70;99.90;;;;;;4959081;28;20114;-78
2022/02/11 15:47:14;;;;;;;11.82;1.95;;;7.40;99.90;;;;;;4944932;28;20154;-78
2022/02/11 15:49:40;;;;;;;10.10;2.08;;;7.10;99.90;;;;;;4944544;28;20137;-78
2022/02/11 15:52:06;;;;;;;15.02;2.88;;;6.90;99.90;;;;;;4956918;28;20066;-78
2022/02/11 15:54:32;;;;;;;15.73;2.38;;;6.70;99.90;;;;;;4972651;28;20027;-78
2022/02/11 15:56:57;;;;;;;13.32;2.08;;;6.60;99.90;;;;;;4974460;28;20031;-78
2022/02/11 15:59:23;;;;;;;12.15;2.80;;;6.40;99.90;;;;;;4951604;28;20811;-77
2022/02/11 16:01:50;;;;;;;11.88;1.90;;;6.30;99.90;;;;;;4957078;28;20039;-78
2022/02/11 16:04:16;;;;;;;11.52;1.95;;;6.10;99.90;;;;;;4958319;28;20045;-77
2022/02/11 16:06:42;;;;;;;14.50;2.22;;;6.00;99.90;;;;;;4959153;28;20031;-77
2022/02/11 16:09:08;;;;;;;15.38;2.72;;;5.80;99.90;;;;;;4957122;28;20041;-77
2022/02/11 16:11:35;;;;;;;13.48;2.13;;;5.70;99.90;;;;;;4976509;28;20038;-77
2022/02/11 16:14:01;;;;;;;14.35;3.92;;;5.60;99.90;;;;;;4940843;28;20035;-78
2022/02/11 16:16:26;;;;;;;13.07;2.60;;;5.50;99.90;;;;;;4956897;28;20062;-77
2022/02/11 16:18:52;;;;;;;14.23;2.65;;;5.50;99.90;;;;;;4958366;28;20042;-77
2022/02/11 16:21:18;;;;;;;12.05;2.20;;;5.30;99.90;;;;;;4981413;28;20034;-77
2022/02/11 16:23:43;;;;;;;13.27;2.15;;;5.20;99.90;;;;;;4962088;28;20042;-77
2022/02/11 16:26:13;;;;;;;14.18;2.30;;;5.00;99.90;;;;;;4946875;28;20047;-78
2022/02/11 16:28:40;;;;;;;10.95;2.40;;;4.90;99.90;;;;;;4973432;28;20031;-77
2022/02/11 16:31:20;;;;;;;18.65;2.45;;;4.60;99.90;;;;;;4980529;28;20054;-77
2022/02/11 16:33:48;;;;;;;15.25;2.30;;;4.50;99.90;;;;;;4980350;28;20031;-77
2022/02/11 16:36:14;;;;;;;7.70;1.92;;;4.40;99.90;;;;;;4966240;28;20035;-77
2022/02/11 16:38:42;;;;;;;11.98;2.70;;;4.20;99.90;;;;;;4980245;28;20043;-77
2022/02/11 16:41:08;;;;;;;13.48;2.83;;;4.10;99.90;;;;;;4978472;28;20111;-77
2022/02/11 16:43:34;;;;;;;13.32;2.50;;;4.00;99.90;;;;;;4967540;28;20150;-77
2022/02/11 16:46:00;;;;;;;11.65;2.72;;;3.80;99.90;;;;;;4976616;28;20037;-77
2022/02/11 16:48:26;;;;;;;24.38;8.00;;;3.70;99.90;;;;;;4957079;28;20130;-77